Weather at Tatum Airport

Public forecast

Using degrees Fahrenheit for public forecast. Weather courtesy of forecast.io.

Closest aviation weather report (METAR) to Tatum Airport

Closest report is Lea County Regional Airport, 34.6 nm (64.0 km) S. Retrieved 2021/12/01 12:35 UTC (18 minutes ago):

KHOB 011235Z AUTO 28007KT 10SM CLR 04/M01 A3015 RMK AO2

Closest aviation forecast (TAF) to Tatum Airport

Closest forecast is Lea County Regional Airport, 34.6 nm (64.0 km) S. Retrieved 2021/12/01 12:22 UTC (31 minutes ago):

TAF KHOB 011120Z 0112/0212 31006KT P6SM SCT200